Time;durP1;ratioP1;P1;durP2;ratioP2;P2;SDS_P1;SDS_P2;PMS_P1;PMS_P2;Temp;Humidity;BMP_temperature;BMP_pressure;BME280_temperature;BME280_humidity;BME280_pressure;Samples;Min_cycle;Max_cycle;Signal;HPM_P1;HPM_P2
2022/03/05 00:00:08;;;;;;;36.50;15.40;;;;;;;;;;10316775;28;20350;-66
2022/03/05 00:05:31;;;;;;;36.05;15.95;;;;;;;;;;10316249;28;20122;-67
2022/03/05 00:10:35;;;;;;;40.45;16.55;;;;;;;;;;10330078;28;20049;-67
2022/03/05 00:15:38;;;;;;;36.03;16.27;;;;;;;;;;10356202;28;20045;-67
2022/03/05 00:20:40;;;;;;;43.85;18.35;;;;;;;;;;10356817;28;20054;-67
2022/03/05 00:25:45;;;;;;;44.83;18.02;;;;;;;;;;10343019;28;20039;-67
2022/03/05 00:30:47;;;;;;;54.38;20.88;;;;;;;;;;10324727;28;20371;-67
2022/03/05 00:35:50;;;;;;;38.50;16.38;;;;;;;;;;10354662;28;20076;-67
2022/03/05 00:40:55;;;;;;;40.63;17.33;;;;;;;;;;10348369;28;20047;-67
2022/03/05 00:45:57;;;;;;;46.50;17.90;;;;;;;;;;10314243;28;20051;-66
2022/03/05 00:50:59;;;;;;;36.53;17.13;;;;;;;;;;10315176;28;20038;-66
2022/03/05 00:56:06;;;;;;;40.30;16.35;;;;;;;;;;10314853;28;20039;-67
2022/03/05 01:01:09;;;;;;;38.50;16.48;;;;;;;;;;10324344;28;20243;-67
2022/03/05 01:06:11;;;;;;;37.05;16.52;;;;;;;;;;10314168;28;20313;-67
2022/03/05 01:11:16;;;;;;;31.58;16.13;;;;;;;;;;10325969;28;20349;-66
2022/03/05 01:16:18;;;;;;;36.72;15.77;;;;;;;;;;10350928;28;20049;-67
2022/03/05 01:21:20;;;;;;;35.72;14.90;;;;;;;;;;10329296;28;20377;-67
2022/03/05 01:26:27;;;;;;;35.88;16.00;;;;;;;;;;10326620;28;20042;-66
2022/03/05 01:31:30;;;;;;;35.47;15.18;;;;;;;;;;10349690;28;20265;-66
2022/03/05 01:36:33;;;;;;;35.20;14.63;;;;;;;;;;10299340;28;20345;-66
2022/03/05 01:41:37;;;;;;;37.25;15.93;;;;;;;;;;10326351;28;20050;-66
2022/03/05 01:46:41;;;;;;;43.50;16.90;;;;;;;;;;10337939;28;20065;-67
2022/03/05 01:51:44;;;;;;;39.22;13.88;;;;;;;;;;10298595;28;20059;-66
2022/03/05 01:56:48;;;;;;;38.88;16.73;;;;;;;;;;10328884;28;20101;-66
2022/03/05 02:01:50;;;;;;;33.40;12.98;;;;;;;;;;10351195;28;20042;-66
2022/03/05 02:06:53;;;;;;;33.65;14.75;;;;;;;;;;10301329;28;20074;-66
2022/03/05 02:11:57;;;;;;;44.22;15.85;;;;;;;;;;10272748;28;20051;-66
2022/03/05 02:16:59;;;;;;;33.80;14.68;;;;;;;;;;10305702;28;20047;-67
2022/03/05 02:22:03;;;;;;;33.50;14.77;;;;;;;;;;10311075;28;20093;-66
2022/03/05 02:27:07;;;;;;;32.33;14.95;;;;;;;;;;10311312;28;20054;-67
2022/03/05 02:32:10;;;;;;;38.72;15.45;;;;;;;;;;10348852;28;20333;-67
2022/03/05 02:37:16;;;;;;;35.90;15.50;;;;;;;;;;10344368;28;20489;-66
2022/03/05 02:42:19;;;;;;;37.47;14.77;;;;;;;;;;10334925;28;20042;-67
2022/03/05 02:47:21;;;;;;;37.08;15.57;;;;;;;;;;10309028;28;20261;-66
2022/03/05 02:52:24;;;;;;;37.33;16.48;;;;;;;;;;10311520;28;20043;-67
2022/03/05 02:57:27;;;;;;;40.65;16.23;;;;;;;;;;10316062;28;20054;-67
2022/03/05 03:02:29;;;;;;;34.42;16.30;;;;;;;;;;10290318;28;20097;-67
2022/03/05 03:07:33;;;;;;;35.50;17.38;;;;;;;;;;10306527;28;20047;-67
2022/03/05 03:12:35;;;;;;;35.58;17.10;;;;;;;;;;10323461;28;20043;-66
2022/03/05 03:17:41;;;;;;;39.20;18.02;;;;;;;;;;10322971;28;20069;-67
2022/03/05 03:22:45;;;;;;;39.25;17.40;;;;;;;;;;10335023;28;20046;-67
2022/03/05 03:27:49;;;;;;;38.57;17.80;;;;;;;;;;10357947;28;20053;-66
2022/03/05 03:32:53;;;;;;;36.37;15.47;;;;;;;;;;10352499;28;20051;-66
2022/03/05 03:37:58;;;;;;;42.75;17.70;;;;;;;;;;10329675;28;20058;-67
2022/03/05 03:43:00;;;;;;;42.55;16.83;;;;;;;;;;10353987;28;20268;-66
2022/03/05 03:48:03;;;;;;;40.72;15.93;;;;;;;;;;10328137;28;20472;-67
2022/03/05 03:53:06;;;;;;;38.90;17.20;;;;;;;;;;10355003;28;20215;-67
2022/03/05 03:58:09;;;;;;;35.38;15.52;;;;;;;;;;10288898;28;20050;-67
2022/03/05 04:03:11;;;;;;;30.73;15.18;;;;;;;;;;10328292;28;20050;-66
2022/03/05 04:13:35;;;;;;;29.73;14.68;;;;;;;;;;10370014;28;20237;-67
2022/03/05 04:18:38;;;;;;;39.42;14.85;;;;;;;;;;10347942;28;20093;-67
2022/03/05 04:23:42;;;;;;;41.03;16.20;;;;;;;;;;10317664;28;20038;-67
2022/03/05 04:28:44;;;;;;;34.83;16.63;;;;;;;;;;10339074;28;20318;-67
2022/03/05 04:33:47;;;;;;;51.85;18.13;;;;;;;;;;10346816;28;20094;-66
2022/03/05 04:38:51;;;;;;;44.42;16.80;;;;;;;;;;10327491;28;20086;-66
2022/03/05 04:43:53;;;;;;;50.60;18.05;;;;;;;;;;10323387;28;20330;-68
2022/03/05 04:48:55;;;;;;;46.50;18.00;;;;;;;;;;10318140;28;20042;-65
2022/03/05 04:53:59;;;;;;;41.20;17.77;;;;;;;;;;10323447;28;20256;-66
2022/03/05 04:59:02;;;;;;;43.88;17.33;;;;;;;;;;10353688;28;20061;-66
2022/03/05 05:04:05;;;;;;;47.00;17.27;;;;;;;;;;10331608;28;20058;-65
2022/03/05 05:09:08;;;;;;;35.65;17.17;;;;;;;;;;10314795;28;20364;-67
2022/03/05 05:14:11;;;;;;;42.25;17.55;;;;;;;;;;10340149;28;20058;-66
2022/03/05 05:19:27;;;;;;;38.33;16.60;;;;;;;;;;10354426;28;20065;-67
2022/03/05 05:24:32;;;;;;;41.53;19.07;;;;;;;;;;10316211;28;20057;-66
2022/03/05 05:29:35;;;;;;;46.25;19.63;;;;;;;;;;10320091;28;20299;-67
2022/03/05 05:34:38;;;;;;;43.35;17.65;;;;;;;;;;10353763;28;20062;-67
2022/03/05 05:39:41;;;;;;;42.55;17.63;;;;;;;;;;10353949;28;20053;-67
2022/03/05 05:44:44;;;;;;;33.40;15.07;;;;;;;;;;10337448;28;20089;-67
2022/03/05 05:49:46;;;;;;;33.22;15.18;;;;;;;;;;10313030;28;20093;-68
2022/03/05 05:54:50;;;;;;;34.92;15.63;;;;;;;;;;10312776;28;20043;-67
2022/03/05 05:59:53;;;;;;;35.78;16.67;;;;;;;;;;10305435;28;20042;-66
2022/03/05 06:04:55;;;;;;;33.85;15.02;;;;;;;;;;10351931;28;20234;-65
2022/03/05 06:09:58;;;;;;;26.90;13.48;;;;;;;;;;10352700;28;20038;-66
2022/03/05 06:15:03;;;;;;;29.63;13.73;;;;;;;;;;10310387;28;20047;-67
2022/03/05 06:20:10;;;;;;;27.17;13.07;;;;;;;;;;10328120;28;20080;-67
2022/03/05 06:25:14;;;;;;;23.88;11.55;;;;;;;;;;10314566;28;20634;-67
2022/03/05 06:30:16;;;;;;;22.48;11.30;;;;;;;;;;10312906;28;20042;-67
2022/03/05 06:35:19;;;;;;;20.55;11.00;;;;;;;;;;10338385;28;20046;-66
2022/03/05 06:40:23;;;;;;;24.85;14.68;;;;;;;;;;10312154;28;20042;-67
2022/03/05 06:45:25;;;;;;;32.22;19.15;;;;;;;;;;10311255;28;20357;-67
2022/03/05 06:50:27;;;;;;;18.02;11.95;;;;;;;;;;10319044;28;20046;-67
2022/03/05 06:55:31;;;;;;;23.88;16.00;;;;;;;;;;10271477;28;20050;-67
2022/03/05 07:00:33;;;;;;;20.53;13.53;;;;;;;;;;10292736;28;20046;-67
2022/03/05 07:05:36;;;;;;;17.17;10.05;;;;;;;;;;10327430;28;20488;-66
2022/03/05 07:10:39;;;;;;;12.38;7.95;;;;;;;;;;10344966;28;20050;-67
2022/03/05 07:15:42;;;;;;;14.68;9.32;;;;;;;;;;10344575;28;20050;-67
2022/03/05 07:20:44;;;;;;;12.30;8.83;;;;;;;;;;10336851;28;20046;-66
2022/03/05 07:25:51;;;;;;;10.77;7.07;;;;;;;;;;10323189;28;20660;-67
2022/03/05 07:30:55;;;;;;;10.85;7.28;;;;;;;;;;10310212;28;20050;-68
2022/03/05 07:35:58;;;;;;;10.02;7.22;;;;;;;;;;10347076;28;20078;-67
2022/03/05 07:41:02;;;;;;;10.93;6.68;;;;;;;;;;10350604;28;20046;-68
2022/03/05 07:46:05;;;;;;;11.55;5.97;;;;;;;;;;10336327;28;20314;-68
2022/03/05 07:51:07;;;;;;;47.30;8.57;;;;;;;;;;10318132;28;20341;-67
2022/03/05 07:56:11;;;;;;;8.70;5.70;;;;;;;;;;10317886;28;20339;-68
2022/03/05 08:01:13;;;;;;;8.45;5.05;;;;;;;;;;10322235;28;20047;-67
2022/03/05 08:06:15;;;;;;;7.13;4.80;;;;;;;;;;10319156;28;20065;-67
2022/03/05 08:11:19;;;;;;;8.38;6.05;;;;;;;;;;10354298;28;20085;-66
2022/03/05 08:16:21;;;;;;;9.15;5.45;;;;;;;;;;10310714;28;20094;-67
2022/03/05 08:21:26;;;;;;;;;;;;;;;;;;10290392;28;20046;-68
2022/03/05 08:26:30;;;;;;;8.25;6.07;;;;;;;;;;10356363;28;19917;-67
2022/03/05 08:31:32;;;;;;;4.75;3.95;;;;;;;;;;10280261;28;20054;-68
2022/03/05 08:36:35;;;;;;;6.47;4.43;;;;;;;;;;10308982;28;20062;-66
2022/03/05 08:41:39;;;;;;;11.13;5.30;;;;;;;;;;10342632;28;20241;-67
2022/03/05 08:46:41;;;;;;;7.35;5.78;;;;;;;;;;10345934;28;20396;-66
2022/03/05 08:51:44;;;;;;;8.20;7.22;;;;;;;;;;10355719;28;20046;-67
2022/03/05 08:56:48;;;;;;;7.32;5.80;;;;;;;;;;10355921;28;20229;-67
2022/03/05 09:01:50;;;;;;;;;;;;;;;;;;10331728;28;20053;-67
2022/03/05 09:06:53;;;;;;;7.97;4.35;;;;;;;;;;10315047;28;19918;-66
2022/03/05 09:11:57;;;;;;;4.90;2.30;;;;;;;;;;10327437;28;20242;-66
2022/03/05 09:16:59;;;;;;;4.38;2.33;;;;;;;;;;10323085;28;20047;-67
2022/03/05 09:22:01;;;;;;;7.38;2.90;;;;;;;;;;10337243;28;20214;-68
2022/03/05 09:27:07;;;;;;;6.57;2.30;;;;;;;;;;10352837;28;20042;-67
2022/03/05 09:32:09;;;;;;;3.58;1.95;;;;;;;;;;10320794;28;20043;-67
2022/03/05 09:37:12;;;;;;;2.83;1.67;;;;;;;;;;10352343;28;20066;-67
2022/03/05 09:42:16;;;;;;;3.80;1.83;;;;;;;;;;10346027;28;20050;-68
2022/03/05 09:47:20;;;;;;;3.63;3.13;;;;;;;;;;10301784;28;20322;-66
2022/03/05 09:52:22;;;;;;;5.73;2.10;;;;;;;;;;10312080;28;20357;-66
2022/03/05 09:57:26;;;;;;;2.55;2.30;;;;;;;;;;10317253;28;20061;-68
2022/03/05 10:02:29;;;;;;;3.63;2.40;;;;;;;;;;10335360;28;20042;-68
2022/03/05 10:07:31;;;;;;;3.22;2.35;;;;;;;;;;10351105;28;20054;-68
2022/03/05 10:12:35;;;;;;;2.28;2.08;;;;;;;;;;10345086;28;20042;-66
2022/03/05 10:17:52;;;;;;;2.83;2.40;;;;;;;;;;10291190;28;20061;-67
2022/03/05 10:23:00;;;;;;;2.45;2.25;;;;;;;;;;10315986;28;20035;-67
2022/03/05 10:28:07;;;;;;;5.72;2.78;;;;;;;;;;10363924;28;20038;-66
2022/03/05 10:33:23;;;;;;;6.10;4.43;;;;;;;;;;10331311;28;20066;-67
2022/03/05 10:38:44;;;;;;;4.32;3.20;;;;;;;;;;10317602;28;20058;-67
2022/03/05 10:44:04;;;;;;;4.82;2.70;;;;;;;;;;10336309;28;20097;-67
2022/03/05 10:49:10;;;;;;;10.93;4.20;;;;;;;;;;10319140;28;20047;-67
2022/03/05 10:54:13;;;;;;;12.50;7.45;;;;;;;;;;10350569;28;20046;-67
2022/03/05 10:59:16;;;;;;;29.98;18.15;;;;;;;;;;10309393;28;20062;-67
2022/03/05 11:04:19;;;;;;;17.83;5.38;;;;;;;;;;10300632;28;20043;-67
2022/03/05 11:09:24;;;;;;;11.05;6.40;;;;;;;;;;10309473;28;20046;-68
2022/03/05 11:14:28;;;;;;;;;;;;;;;;;;10308877;28;20246;-67
2022/03/05 11:19:31;;;;;;;5.88;3.97;;;;;;;;;;10340058;28;19938;-67
2022/03/05 11:24:34;;;;;;;14.02;3.90;;;;;;;;;;10326392;28;20050;-67
2022/03/05 11:29:56;;;;;;;6.93;5.00;;;;;;;;;;10331222;28;20314;-67
2022/03/05 11:34:59;;;;;;;5.10;3.10;;;;;;;;;;10356093;28;20065;-67
2022/03/05 11:40:03;;;;;;;7.68;3.75;;;;;;;;;;10318561;28;20042;-67
2022/03/05 11:45:30;;;;;;;7.73;2.60;;;;;;;;;;10316896;28;20353;-66
2022/03/05 11:50:32;;;;;;;6.90;5.35;;;;;;;;;;10323825;28;20245;-67
2022/03/05 11:55:41;;;;;;;6.05;4.53;;;;;;;;;;10354357;28;20140;-67
2022/03/05 12:00:49;;;;;;;4.93;3.38;;;;;;;;;;10369651;28;20349;-66
2022/03/05 12:05:54;;;;;;;33.13;16.58;;;;;;;;;;10347882;28;20051;-67
2022/03/05 12:11:10;;;;;;;7.43;4.15;;;;;;;;;;10356833;28;20066;-67
2022/03/05 12:16:19;;;;;;;4.85;3.35;;;;;;;;;;10345324;28;20058;-66
2022/03/05 12:21:26;;;;;;;5.57;3.35;;;;;;;;;;10316404;28;20123;-66
2022/03/05 12:26:37;;;;;;;4.85;3.50;;;;;;;;;;10351845;28;20049;-66
2022/03/05 12:31:44;;;;;;;4.25;3.40;;;;;;;;;;10340899;28;20051;-67
2022/03/05 12:36:48;;;;;;;4.80;3.65;;;;;;;;;;10309217;28;20063;-67
2022/03/05 12:41:50;;;;;;;7.00;3.70;;;;;;;;;;10353051;28;20056;-67
2022/03/05 12:46:54;;;;;;;11.73;4.30;;;;;;;;;;10319511;28;20268;-67
2022/03/05 12:51:56;;;;;;;10.43;4.68;;;;;;;;;;10335156;28;20043;-66
2022/03/05 12:56:59;;;;;;;7.45;5.07;;;;;;;;;;10356548;28;20054;-67
2022/03/05 13:02:05;;;;;;;8.80;5.65;;;;;;;;;;10355632;28;20342;-67
2022/03/05 13:07:08;;;;;;;8.18;5.63;;;;;;;;;;10328676;28;20043;-67
2022/03/05 13:12:11;;;;;;;7.82;4.95;;;;;;;;;;10314702;28;20055;-66
2022/03/05 13:17:15;;;;;;;9.98;5.45;;;;;;;;;;10314463;28;20047;-66
2022/03/05 13:22:25;;;;;;;15.13;6.38;;;;;;;;;;10287977;28;20111;-67
2022/03/05 13:27:30;;;;;;;8.70;5.85;;;;;;;;;;10355779;28;20077;-67
2022/03/05 13:32:44;;;;;;;8.15;5.38;;;;;;;;;;10354810;28;20050;-67
2022/03/05 13:37:47;;;;;;;9.18;5.90;;;;;;;;;;10318977;28;20135;-67
2022/03/05 13:42:56;;;;;;;8.82;5.25;;;;;;;;;;10310128;28;20349;-67
2022/03/05 13:48:00;;;;;;;7.90;4.85;;;;;;;;;;10328655;28;20218;-66
2022/03/05 13:53:02;;;;;;;8.88;4.85;;;;;;;;;;10331799;28;20046;-66
2022/03/05 13:58:04;;;;;;;9.75;6.00;;;;;;;;;;10340587;28;20058;-67
2022/03/05 14:03:16;;;;;;;8.43;5.63;;;;;;;;;;10323085;28;20046;-66
2022/03/05 14:08:19;;;;;;;9.80;6.30;;;;;;;;;;10328385;28;20085;-65
2022/03/05 14:13:26;;;;;;;9.25;5.80;;;;;;;;;;10305822;28;20058;-66
2022/03/05 14:18:29;;;;;;;11.23;6.45;;;;;;;;;;10327346;28;20054;-66
2022/03/05 14:23:32;;;;;;;10.15;6.57;;;;;;;;;;10318810;28;20512;-67
2022/03/05 14:28:35;;;;;;;11.45;6.07;;;;;;;;;;10340818;28;20044;-68
2022/03/05 14:33:39;;;;;;;13.40;6.95;;;;;;;;;;10353302;28;20042;-68
2022/03/05 14:38:41;;;;;;;8.95;6.40;;;;;;;;;;10315813;28;20039;-67
2022/03/05 14:43:44;;;;;;;27.10;12.98;;;;;;;;;;10316786;28;20042;-67
2022/03/05 14:48:47;;;;;;;12.45;7.65;;;;;;;;;;10353056;28;20338;-68
2022/03/05 14:53:50;;;;;;;12.57;7.10;;;;;;;;;;10327659;28;20053;-68
2022/03/05 14:58:53;;;;;;;17.33;9.90;;;;;;;;;;10329547;28;20043;-66
2022/03/05 15:03:56;;;;;;;12.25;7.40;;;;;;;;;;10314467;28;20270;-68
2022/03/05 15:08:59;;;;;;;11.55;5.95;;;;;;;;;;10313620;28;20066;-68
2022/03/05 15:14:04;;;;;;;11.80;6.75;;;;;;;;;;10328769;28;20054;-67
2022/03/05 15:19:09;;;;;;;12.43;6.38;;;;;;;;;;10353482;28;20053;-66
2022/03/05 15:24:11;;;;;;;10.23;6.05;;;;;;;;;;10338212;28;20043;-66
2022/03/05 15:29:14;;;;;;;10.30;6.68;;;;;;;;;;10311154;28;20059;-67
2022/03/05 15:34:18;;;;;;;14.25;6.40;;;;;;;;;;10331075;28;20066;-67
2022/03/05 15:39:20;;;;;;;9.38;6.13;;;;;;;;;;10287043;28;20039;-67
2022/03/05 15:44:23;;;;;;;12.55;7.38;;;;;;;;;;10305838;28;20341;-68
2022/03/05 15:49:26;;;;;;;8.07;6.40;;;;;;;;;;10310954;28;20043;-66
2022/03/05 15:54:29;;;;;;;11.55;6.68;;;;;;;;;;10276777;28;20043;-68
2022/03/05 15:59:31;;;;;;;9.65;6.50;;;;;;;;;;10305116;28;20053;-68
2022/03/05 16:04:35;;;;;;;11.68;6.63;;;;;;;;;;10314362;28;20058;-68
2022/03/05 16:09:37;;;;;;;25.17;14.30;;;;;;;;;;10318605;28;20226;-67
2022/03/05 16:14:39;;;;;;;14.75;8.23;;;;;;;;;;10319648;28;20218;-67
2022/03/05 16:19:44;;;;;;;16.05;8.13;;;;;;;;;;10330004;28;20050;-67
2022/03/05 16:24:47;;;;;;;24.75;14.27;;;;;;;;;;10359329;28;20053;-67
2022/03/05 16:29:49;;;;;;;14.45;8.13;;;;;;;;;;10359641;28;20086;-67
2022/03/05 16:34:53;;;;;;;14.93;7.63;;;;;;;;;;10323999;28;20105;-67
2022/03/05 16:39:56;;;;;;;20.98;12.00;;;;;;;;;;10319023;28;20054;-66
2022/03/05 16:44:59;;;;;;;35.45;17.42;;;;;;;;;;10319286;28;20395;-66
2022/03/05 16:50:05;;;;;;;26.85;16.00;;;;;;;;;;10324744;28;20287;-67
2022/03/05 16:55:09;;;;;;;45.67;21.48;;;;;;;;;;10331833;28;20039;-68
2022/03/05 17:00:12;;;;;;;83.65;40.47;;;;;;;;;;10316692;28;20046;-67
2022/03/05 17:05:17;;;;;;;78.93;40.08;;;;;;;;;;10292579;28;20043;-68
2022/03/05 17:10:20;;;;;;;35.40;18.48;;;;;;;;;;10316134;28;20062;-65
2022/03/05 17:15:24;;;;;;;44.85;20.05;;;;;;;;;;10310927;28;20043;-68
2022/03/05 17:20:28;;;;;;;45.13;18.25;;;;;;;;;;10321814;28;20062;-67
2022/03/05 17:25:31;;;;;;;28.65;12.75;;;;;;;;;;10350468;28;20046;-69
2022/03/05 17:30:35;;;;;;;26.42;11.90;;;;;;;;;;10309395;28;20046;-67
2022/03/05 17:35:39;;;;;;;26.95;12.27;;;;;;;;;;10315317;28;20063;-67
2022/03/05 17:40:42;;;;;;;16.65;9.68;;;;;;;;;;10299246;28;20086;-67
2022/03/05 17:45:45;;;;;;;10.15;6.90;;;;;;;;;;10289393;28;20058;-67
2022/03/05 17:50:48;;;;;;;10.77;7.00;;;;;;;;;;10275354;29;20054;-67
2022/03/05 17:55:51;;;;;;;8.93;6.10;;;;;;;;;;10276139;28;20038;-67
2022/03/05 18:00:53;;;;;;;13.65;8.05;;;;;;;;;;10300871;28;20055;-67
2022/03/05 18:05:57;;;;;;;15.90;8.43;;;;;;;;;;10313424;28;20050;-68
2022/03/05 18:10:59;;;;;;;16.75;11.57;;;;;;;;;;10314644;28;20043;-66
2022/03/05 18:16:02;;;;;;;10.98;6.82;;;;;;;;;;10284725;28;20043;-67
2022/03/05 18:21:06;;;;;;;48.35;15.93;;;;;;;;;;10274663;28;20050;-67
2022/03/05 18:26:10;;;;;;;20.10;9.80;;;;;;;;;;10273985;29;20055;-67
2022/03/05 18:31:12;;;;;;;24.30;11.73;;;;;;;;;;10279763;28;20099;-68
2022/03/05 18:36:16;;;;;;;12.63;8.73;;;;;;;;;;10306220;28;20237;-67
2022/03/05 18:41:19;;;;;;;13.40;7.70;;;;;;;;;;10312775;28;20105;-67
2022/03/05 18:46:21;;;;;;;19.17;8.75;;;;;;;;;;10311850;28;20050;-68
2022/03/05 18:51:25;;;;;;;19.33;10.82;;;;;;;;;;10311659;28;20039;-67
2022/03/05 18:56:27;;;;;;;17.45;10.70;;;;;;;;;;10311824;28;20043;-67
2022/03/05 19:01:29;;;;;;;14.98;8.30;;;;;;;;;;10289695;28;20063;-67
2022/03/05 19:06:34;;;;;;;15.50;8.43;;;;;;;;;;10272654;28;20043;-68
2022/03/05 19:11:38;;;;;;;17.45;9.43;;;;;;;;;;10271132;29;20044;-66
2022/03/05 19:16:40;;;;;;;11.10;7.30;;;;;;;;;;10277910;28;20230;-67
2022/03/05 19:21:45;;;;;;;11.63;6.85;;;;;;;;;;10311149;28;20069;-67
2022/03/05 19:26:47;;;;;;;11.43;7.50;;;;;;;;;;10311591;28;20206;-66
2022/03/05 19:31:50;;;;;;;13.05;7.38;;;;;;;;;;10311278;28;20055;-67
2022/03/05 19:36:56;;;;;;;12.40;7.20;;;;;;;;;;10307822;28;20261;-67
2022/03/05 19:41:58;;;;;;;17.55;9.27;;;;;;;;;;10326564;28;20046;-67
2022/03/05 19:47:01;;;;;;;13.50;9.18;;;;;;;;;;10304229;28;20074;-67
2022/03/05 19:52:06;;;;;;;14.45;8.82;;;;;;;;;;10279104;28;20267;-67
2022/03/05 19:57:08;;;;;;;12.52;8.88;;;;;;;;;;10278712;28;20078;-67
2022/03/05 20:02:10;;;;;;;12.63;8.90;;;;;;;;;;10291324;28;20054;-66
2022/03/05 20:07:14;;;;;;;16.77;10.93;;;;;;;;;;10318906;28;20051;-67
2022/03/05 20:12:16;;;;;;;18.85;10.30;;;;;;;;;;10314383;28;20098;-66
2022/03/05 20:17:19;;;;;;;19.73;12.05;;;;;;;;;;10278327;28;20050;-67
2022/03/05 20:22:23;;;;;;;25.23;13.40;;;;;;;;;;10278026;28;20056;-68
2022/03/05 20:27:26;;;;;;;17.45;10.38;;;;;;;;;;10290586;28;20051;-67
2022/03/05 20:32:28;;;;;;;22.02;11.75;;;;;;;;;;10328350;28;20054;-67
2022/03/05 20:37:32;;;;;;;16.25;9.93;;;;;;;;;;10280621;28;20055;-67
2022/03/05 20:42:35;;;;;;;15.85;10.00;;;;;;;;;;10313590;28;20234;-67
2022/03/05 20:47:38;;;;;;;29.08;12.23;;;;;;;;;;10312479;28;20086;-66
2022/03/05 20:52:42;;;;;;;86.93;34.35;;;;;;;;;;10315318;28;20053;-66
2022/03/05 20:57:44;;;;;;;102.75;35.17;;;;;;;;;;10276615;29;20044;-67
2022/03/05 21:02:47;;;;;;;120.88;42.25;;;;;;;;;;10309992;28;20054;-67
2022/03/05 21:07:50;;;;;;;118.10;38.25;;;;;;;;;;10316854;28;20049;-67
2022/03/05 21:12:54;;;;;;;138.45;43.22;;;;;;;;;;10315731;28;20438;-67
2022/03/05 21:18:00;;;;;;;39.90;15.95;;;;;;;;;;10305763;28;20051;-68
2022/03/05 21:23:12;;;;;;;32.63;15.95;;;;;;;;;;10296077;28;20513;-67
2022/03/05 21:28:17;;;;;;;42.47;18.77;;;;;;;;;;10367966;28;20237;-66
2022/03/05 21:33:20;;;;;;;51.10;20.88;;;;;;;;;;10336900;28;20322;-67
2022/03/05 21:38:24;;;;;;;46.75;18.13;;;;;;;;;;10313072;28;20046;-67
2022/03/05 21:43:26;;;;;;;85.28;26.60;;;;;;;;;;10314460;28;20046;-70
2022/03/05 21:48:29;;;;;;;32.47;14.52;;;;;;;;;;10317282;28;20051;-66
2022/03/05 21:53:32;;;;;;;33.65;14.85;;;;;;;;;;10279981;28;20358;-65
2022/03/05 21:58:35;;;;;;;15.85;8.27;;;;;;;;;;10306003;28;20050;-66
2022/03/05 22:03:37;;;;;;;10.45;7.82;;;;;;;;;;10313715;28;20102;-66
2022/03/05 22:08:41;;;;;;;41.17;16.42;;;;;;;;;;10353755;28;20043;-67
2022/03/05 22:13:43;;;;;;;14.00;8.15;;;;;;;;;;10331996;28;20337;-66
2022/03/05 22:18:46;;;;;;;30.08;13.52;;;;;;;;;;10279594;28;20050;-67
2022/03/05 22:23:50;;;;;;;46.45;17.70;;;;;;;;;;10323952;28;20346;-66
2022/03/05 22:28:52;;;;;;;21.95;11.57;;;;;;;;;;10278865;28;20038;-66
2022/03/05 22:33:55;;;;;;;31.95;11.90;;;;;;;;;;10314743;28;20047;-67
2022/03/05 22:38:59;;;;;;;81.35;28.50;;;;;;;;;;10311190;28;20085;-66
2022/03/05 22:44:01;;;;;;;71.63;25.65;;;;;;;;;;10333501;28;20078;-66
2022/03/05 22:49:04;;;;;;;40.47;17.55;;;;;;;;;;10352162;28;20159;-67
2022/03/05 22:54:09;;;;;;;24.13;12.00;;;;;;;;;;10332718;28;20109;-67
2022/03/05 22:59:11;;;;;;;53.38;20.85;;;;;;;;;;10311675;28;20043;-67
2022/03/05 23:04:19;;;;;;;41.17;17.60;;;;;;;;;;10314944;28;20356;-67
2022/03/05 23:09:31;;;;;;;39.70;18.23;;;;;;;;;;10324238;28;20357;-66
2022/03/05 23:14:34;;;;;;;51.00;23.05;;;;;;;;;;10324875;28;20050;-66
2022/03/05 23:19:37;;;;;;;52.47;22.63;;;;;;;;;;10290427;28;20051;-67
2022/03/05 23:24:41;;;;;;;31.58;16.05;;;;;;;;;;10311137;28;20101;-66
2022/03/05 23:29:44;;;;;;;40.65;19.15;;;;;;;;;;10359937;28;20042;-67
2022/03/05 23:34:47;;;;;;;63.25;25.60;;;;;;;;;;10358796;28;21320;-66
2022/03/05 23:39:50;;;;;;;77.85;32.55;;;;;;;;;;10289770;28;20246;-67
2022/03/05 23:44:53;;;;;;;74.90;30.98;;;;;;;;;;10290660;28;20053;-66
2022/03/05 23:49:55;;;;;;;58.70;24.65;;;;;;;;;;10321054;28;20046;-67
2022/03/05 23:54:59;;;;;;;46.92;21.00;;;;;;;;;;10319689;28;20069;-67
